createdAt,value
2019-03-24T00:01:07.500Z,85.68
2019-03-24T00:01:17.977Z,85.68
2019-03-24T00:02:18.342Z,85.88
2019-03-24T00:03:23.732Z,86.02
2019-03-24T00:04:18.986Z,85.68
2019-03-24T00:05:19.290Z,85.98
2019-03-24T00:06:19.609Z,86.23
2019-03-24T00:07:19.962Z,86.54
2019-03-24T00:08:20.320Z,87.15
2019-03-24T00:09:20.592Z,87.98
2019-03-24T00:10:20.906Z,88.59
2019-03-24T00:11:21.225Z,88.39
2019-03-24T00:12:21.573Z,88.39
2019-03-24T00:13:21.920Z,88.49
2019-03-24T00:14:22.191Z,88.70
2019-03-24T00:15:26.155Z,88.64
2019-03-24T00:16:22.885Z,88.70
2019-03-24T00:17:23.203Z,88.95
2019-03-24T00:18:23.470Z,89.25
2019-03-24T00:19:23.774Z,89.56
2019-03-24T00:20:24.146Z,89.46
2019-03-24T00:21:24.461Z,89.15
2019-03-24T00:22:24.839Z,89.15
2019-03-24T00:23:25.111Z,88.95
2019-03-24T00:24:25.448Z,89.05
2019-03-24T00:25:25.818Z,88.95
2019-03-24T00:26:26.093Z,88.84
2019-03-24T00:27:26.458Z,88.43
2019-03-24T00:28:26.738Z,88.43
2019-03-24T00:29:27.057Z,88.84
2019-03-24T00:30:27.376Z,88.43
2019-03-24T00:31:27.703Z,88.23
2019-03-24T00:32:28.098Z,88.26
2019-03-24T00:33:28.487Z,88.33
2019-03-24T00:34:28.671Z,88.37
2019-03-24T00:35:29.011Z,88.57
2019-03-24T00:36:29.331Z,88.57
2019-03-24T00:37:29.678Z,88.06
2019-03-24T00:38:29.966Z,87.85
2019-03-24T00:39:30.290Z,87.24
2019-03-24T00:40:30.634Z,86.82
2019-03-24T00:41:31.073Z,86.93
2019-03-24T00:42:31.315Z,86.82
2019-03-24T00:43:31.580Z,85.69
2019-03-24T00:44:31.899Z,85.63
2019-03-24T00:45:36.729Z,85.69
2019-03-24T00:46:32.533Z,86.00
2019-03-24T00:47:32.899Z,85.52
2019-03-24T00:48:33.206Z,84.80
2019-03-24T00:49:33.564Z,84.70
2019-03-24T00:50:33.847Z,84.29
2019-03-24T00:51:34.167Z,82.12
2019-03-24T00:52:34.504Z,83.05
2019-03-24T00:53:34.802Z,83.05
2019-03-24T00:54:35.135Z,80.68
2019-03-24T00:55:35.464Z,80.47
2019-03-24T00:56:35.768Z,81.51
2019-03-24T00:57:37.469Z,77.48
2019-03-24T00:58:36.375Z,77.38
2019-03-24T00:59:36.722Z,78.66
2019-03-24T01:00:37.069Z,78.72
2019-03-24T01:01:37.378Z,78.21
2019-03-24T01:02:37.729Z,77.83
2019-03-24T01:03:38.029Z,75.77
2019-03-24T01:04:38.326Z,74.53
2019-03-24T01:05:38.723Z,74.50
2019-03-24T01:06:39.063Z,73.78
2019-03-24T01:07:39.319Z,73.78
2019-03-24T01:08:39.627Z,73.57
2019-03-24T01:09:39.931Z,73.47
2019-03-24T01:10:40.285Z,73.19
2019-03-24T01:11:40.592Z,73.60
2019-03-24T01:12:40.932Z,72.58
2019-03-24T01:13:41.248Z,72.27
2019-03-24T01:14:41.693Z,72.06
2019-03-24T01:15:47.633Z,72.88
2019-03-24T01:16:43.199Z,73.19
2019-03-24T01:17:42.540Z,72.27
2019-03-24T01:18:42.868Z,72.50
2019-03-24T01:19:43.175Z,72.61
2019-03-24T01:20:43.499Z,72.78
2019-03-24T01:21:43.820Z,72.71
2019-03-24T01:22:44.214Z,72.19
2019-03-24T01:23:44.459Z,72.19
2019-03-24T01:24:44.775Z,72.09
2019-03-24T01:25:45.100Z,71.37
2019-03-24T01:26:45.426Z,72.09
2019-03-24T01:27:45.758Z,72.19
2019-03-24T01:28:46.086Z,72.44
2019-03-24T01:29:46.408Z,71.92
2019-03-24T01:30:46.772Z,73.47
2019-03-24T01:31:47.026Z,72.64
2019-03-24T01:32:47.356Z,72.85
2019-03-24T01:33:47.710Z,72.74
2019-03-24T01:34:48.013Z,72.23
2019-03-24T01:35:48.355Z,72.78
2019-03-24T01:36:48.657Z,72.74
2019-03-24T01:37:48.971Z,72.74
2019-03-24T01:38:49.405Z,72.64
2019-03-24T01:39:49.684Z,72.54
2019-03-24T01:40:49.998Z,72.23
2019-03-24T01:41:50.309Z,72.85
2019-03-24T01:42:50.620Z,72.02
2019-03-24T01:43:51.215Z,72.13
2019-03-24T01:44:51.286Z,72.54
2019-03-24T01:45:58.118Z,72.64
2019-03-24T01:46:52.938Z,72.57
2019-03-24T01:47:52.385Z,72.64
2019-03-24T01:48:52.595Z,72.67
2019-03-24T01:49:52.884Z,72.88
2019-03-24T01:50:53.224Z,73.09
2019-03-24T01:51:53.530Z,73.29
2019-03-24T01:52:53.852Z,72.99
2019-03-24T01:53:54.176Z,73.09
2019-03-24T01:54:54.474Z,73.19
2019-03-24T01:55:54.921Z,72.99
2019-03-24T01:56:55.133Z,73.19
2019-03-24T01:57:55.459Z,73.19
2019-03-24T01:58:55.790Z,73.60
2019-03-24T01:59:56.103Z,74.02
2019-03-24T02:00:56.446Z,73.54
2019-03-24T02:01:56.748Z,73.22
2019-03-24T02:02:57.061Z,74.36
2019-03-24T02:03:57.481Z,73.95
2019-03-24T02:04:57.687Z,73.85
2019-03-24T02:05:58.046Z,74.57
2019-03-24T02:06:58.352Z,74.67
2019-03-24T02:07:58.675Z,74.88
2019-03-24T02:08:59.023Z,75.29
2019-03-24T02:09:59.324Z,75.29
2019-03-24T02:10:59.638Z,75.53
2019-03-24T02:12:00.022Z,76.15
2019-03-24T02:13:00.276Z,76.15
2019-03-24T02:14:00.622Z,75.74
2019-03-24T02:15:00.937Z,76.46
2019-03-24T02:16:09.020Z,76.50
2019-03-24T02:17:02.566Z,77.43
2019-03-24T02:18:01.904Z,77.22
2019-03-24T02:19:02.238Z,77.53
2019-03-24T02:20:02.587Z,77.39
2019-03-24T02:21:02.960Z,77.50
2019-03-24T02:22:03.175Z,77.91
2019-03-24T02:23:03.510Z,78.01
2019-03-24T02:24:03.857Z,78.05
2019-03-24T02:25:04.175Z,78.25
2019-03-24T02:26:04.494Z,78.88
2019-03-24T02:27:04.802Z,79.77
2019-03-24T02:28:05.113Z,79.25
2019-03-24T02:29:05.577Z,79.08
2019-03-24T02:30:05.788Z,79.39
2019-03-24T02:31:06.116Z,80.01
2019-03-24T02:32:06.399Z,80.01
2019-03-24T02:33:06.717Z,79.91
2019-03-24T02:34:07.074Z,80.63
2019-03-24T02:35:07.405Z,80.22
2019-03-24T02:36:07.732Z,80.32
2019-03-24T02:37:08.115Z,81.35
2019-03-24T02:38:08.345Z,80.84
2019-03-24T02:39:08.705Z,81.15
2019-03-24T02:40:09.024Z,81.11
2019-03-24T02:41:09.346Z,81.32
2019-03-24T02:42:09.650Z,81.25
2019-03-24T02:43:09.972Z,81.77
2019-03-24T02:44:10.366Z,81.77
2019-03-24T02:45:10.684Z,81.25
2019-03-24T02:46:23.172Z,81.87
2019-03-24T02:47:12.251Z,81.56
2019-03-24T02:48:11.578Z,81.35
2019-03-24T02:49:11.922Z,81.77
2019-03-24T02:50:12.216Z,81.46
2019-03-24T02:51:12.540Z,81.05
2019-03-24T02:52:12.875Z,81.05
2019-03-24T02:53:13.225Z,81.15
2019-03-24T02:54:13.556Z,81.25
2019-03-24T02:55:13.868Z,81.35
2019-03-24T02:56:14.190Z,81.39
2019-03-24T02:57:14.539Z,81.09
2019-03-24T02:58:38.761Z,81.09
2019-03-24T02:59:16.200Z,81.39
2019-03-24T03:00:15.527Z,81.64
2019-03-24T03:01:15.867Z,81.54
2019-03-24T03:02:16.254Z,81.29
2019-03-24T03:03:16.514Z,80.81
2019-03-24T03:04:16.854Z,80.91
2019-03-24T03:05:17.168Z,80.60
2019-03-24T03:06:17.467Z,80.81
2019-03-24T03:07:17.819Z,81.02
2019-03-24T03:08:18.152Z,81.23
2019-03-24T03:09:18.489Z,81.23
2019-03-24T03:10:18.901Z,81.33
2019-03-24T03:11:19.081Z,81.23
2019-03-24T03:12:19.434Z,80.91
2019-03-24T03:13:19.747Z,81.23
2019-03-24T03:14:20.090Z,81.74
2019-03-24T03:15:20.412Z,81.37
2019-03-24T03:16:20.720Z,81.26
2019-03-24T03:17:21.048Z,81.88
2019-03-24T03:18:21.413Z,82.09
2019-03-24T03:19:21.688Z,82.09
2019-03-24T03:20:22.006Z,82.23
2019-03-24T03:21:22.555Z,81.92
2019-03-24T03:22:22.668Z,82.44
2019-03-24T03:23:22.954Z,82.44
2019-03-24T03:24:23.302Z,82.44
2019-03-24T03:25:23.643Z,82.13
2019-03-24T03:26:24.019Z,82.65
2019-03-24T03:27:24.257Z,82.75
2019-03-24T03:28:24.562Z,83.37
2019-03-24T03:29:24.882Z,83.72
2019-03-24T03:30:25.222Z,83.37
2019-03-24T03:31:25.542Z,83.78
2019-03-24T03:32:25.882Z,84.65
2019-03-24T03:33:26.180Z,84.13
2019-03-24T03:34:26.579Z,84.44
2019-03-24T03:35:26.858Z,84.55
2019-03-24T03:36:27.166Z,85.17
2019-03-24T03:37:27.490Z,84.86
2019-03-24T03:38:27.791Z,85.58
2019-03-24T03:39:28.132Z,85.27
2019-03-24T03:40:28.448Z,84.75
2019-03-24T03:41:28.759Z,85.17
2019-03-24T03:42:29.134Z,85.27
2019-03-24T03:43:29.562Z,84.96
2019-03-24T03:44:29.756Z,85.06
2019-03-24T03:45:30.063Z,84.75
2019-03-24T03:46:30.388Z,84.44
2019-03-24T03:47:30.720Z,85.48
2019-03-24T03:48:31.024Z,85.31
2019-03-24T03:49:31.362Z,85.69
2019-03-24T03:50:31.689Z,86.52
2019-03-24T03:51:32.127Z,86.41
2019-03-24T03:52:32.351Z,85.58
2019-03-24T03:53:32.639Z,85.89
2019-03-24T03:54:32.977Z,86.72
2019-03-24T03:55:33.358Z,85.94
2019-03-24T03:56:33.588Z,86.62
2019-03-24T03:57:33.950Z,86.72
2019-03-24T03:58:34.265Z,85.79
2019-03-24T03:59:34.647Z,85.17
2019-03-24T04:00:34.897Z,85.27
2019-03-24T04:01:35.204Z,85.17
2019-03-24T04:02:35.527Z,85.38
2019-03-24T04:03:35.855Z,84.44
2019-03-24T04:04:36.172Z,84.44
2019-03-24T04:05:36.500Z,85.38
2019-03-24T04:06:36.823Z,84.55
2019-03-24T04:07:37.226Z,85.38
2019-03-24T04:08:37.416Z,84.96
2019-03-24T04:09:37.769Z,85.38
2019-03-24T04:10:38.109Z,85.06
2019-03-24T04:11:38.443Z,85.17
2019-03-24T04:12:38.774Z,85.27
2019-03-24T04:13:39.072Z,85.06
2019-03-24T04:14:39.367Z,84.44
2019-03-24T04:15:39.751Z,85.06
2019-03-24T04:16:40.124Z,84.80
2019-03-24T04:17:40.399Z,85.11
2019-03-24T04:18:40.706Z,85.31
2019-03-24T04:19:41.008Z,85.73
2019-03-24T04:20:41.363Z,86.35
2019-03-24T04:21:41.686Z,86.25
2019-03-24T04:22:42.006Z,86.66
2019-03-24T04:23:42.317Z,86.45
2019-03-24T04:24:42.745Z,86.45
2019-03-24T04:25:42.974Z,86.49
2019-03-24T04:26:43.286Z,86.35
2019-03-24T04:27:43.611Z,86.55
2019-03-24T04:28:43.917Z,86.55
2019-03-24T04:29:44.232Z,86.55
2019-03-24T04:30:44.601Z,86.66
2019-03-24T04:31:44.911Z,86.45
2019-03-24T04:32:45.380Z,86.49
2019-03-24T04:33:45.548Z,86.25
2019-03-24T04:34:45.873Z,86.29
2019-03-24T04:35:46.185Z,86.49
2019-03-24T04:36:46.523Z,86.49
2019-03-24T04:37:46.856Z,86.29
2019-03-24T04:38:47.161Z,86.35
2019-03-24T04:39:47.492Z,86.60
2019-03-24T04:40:47.847Z,86.25
2019-03-24T04:41:48.104Z,86.60
2019-03-24T04:42:48.458Z,86.49
2019-03-24T04:43:48.768Z,86.29
2019-03-24T04:44:49.085Z,86.49
2019-03-24T04:45:49.422Z,86.22
2019-03-24T04:46:49.744Z,86.33
2019-03-24T04:47:50.053Z,86.64
2019-03-24T04:48:50.440Z,86.95
2019-03-24T04:49:50.720Z,86.91
2019-03-24T04:50:51.047Z,86.85
2019-03-24T04:51:51.366Z,86.70
2019-03-24T04:52:51.666Z,86.80
2019-03-24T04:53:51.994Z,86.49
2019-03-24T04:54:57.134Z,86.29
2019-03-24T04:55:52.673Z,86.49
2019-03-24T04:56:53.015Z,86.39
2019-03-24T04:57:53.398Z,86.29
2019-03-24T04:58:53.836Z,86.29
2019-03-24T04:59:54.171Z,86.29
2019-03-24T05:00:54.525Z,86.29
2019-03-24T05:01:54.840Z,86.54
2019-03-24T05:02:55.160Z,86.39
2019-03-24T05:03:55.472Z,86.74
2019-03-24T05:04:55.777Z,86.43
2019-03-24T05:05:56.247Z,86.95
2019-03-24T05:06:56.430Z,86.85
2019-03-24T05:07:56.762Z,86.95
2019-03-24T05:08:57.052Z,86.95
2019-03-24T05:09:57.381Z,87.19
2019-03-24T05:10:57.730Z,87.26
2019-03-24T05:11:58.055Z,87.37
2019-03-24T05:12:58.388Z,87.16
2019-03-24T05:13:58.751Z,87.16
2019-03-24T05:14:58.982Z,87.30
2019-03-24T05:15:59.346Z,87.51
2019-03-24T05:16:59.654Z,87.47
2019-03-24T05:17:59.985Z,87.30
2019-03-24T05:19:00.290Z,87.16
2019-03-24T05:20:00.614Z,87.40
2019-03-24T05:21:00.931Z,87.37
2019-03-24T05:22:01.306Z,86.54
2019-03-24T05:23:01.599Z,86.74
2019-03-24T05:24:01.909Z,87.05
2019-03-24T05:25:02.233Z,86.85
2019-03-24T05:26:02.569Z,87.05
2019-03-24T05:27:02.885Z,86.64
2019-03-24T05:28:03.211Z,86.49
2019-03-24T05:29:03.521Z,86.60
2019-03-24T05:30:03.909Z,86.22
2019-03-24T05:31:04.218Z,86.64
2019-03-24T05:32:04.507Z,86.33
2019-03-24T05:33:04.845Z,86.43
2019-03-24T05:34:05.152Z,86.74
2019-03-24T05:35:05.737Z,86.64
2019-03-24T05:36:05.826Z,86.64
2019-03-24T05:37:06.151Z,86.22
2019-03-24T05:38:06.436Z,86.33
2019-03-24T05:39:06.916Z,86.74
2019-03-24T05:40:07.104Z,86.18
2019-03-24T05:41:07.443Z,86.49
2019-03-24T05:42:07.757Z,86.18
2019-03-24T05:43:08.055Z,86.43
2019-03-24T05:44:08.396Z,86.49
2019-03-24T05:45:08.728Z,86.29
2019-03-24T05:46:09.066Z,86.49
2019-03-24T05:47:09.549Z,86.70
2019-03-24T05:48:09.757Z,85.73
2019-03-24T05:49:10.037Z,85.04
2019-03-24T05:50:10.359Z,85.31
2019-03-24T05:51:10.699Z,85.25
2019-03-24T05:52:11.038Z,85.56
2019-03-24T05:53:11.327Z,85.66
2019-03-24T05:54:11.658Z,86.80
2019-03-24T05:55:12.071Z,86.60
2019-03-24T05:56:12.321Z,86.70
2019-03-24T05:57:12.673Z,85.87
2019-03-24T05:58:13.009Z,86.18
2019-03-24T05:59:13.304Z,85.77
2019-03-24T06:00:13.610Z,85.63
2019-03-24T06:01:13.969Z,86.70
2019-03-24T06:02:14.306Z,86.70
2019-03-24T06:03:14.635Z,85.63
2019-03-24T06:04:14.908Z,85.21
2019-03-24T06:05:15.206Z,84.69
2019-03-24T06:06:15.545Z,84.90
2019-03-24T06:07:15.886Z,85.11
2019-03-24T06:08:16.205Z,84.23
2019-03-24T06:09:16.533Z,83.62
2019-03-24T06:10:16.840Z,84.44
2019-03-24T06:11:17.181Z,84.23
2019-03-24T06:12:17.587Z,84.03
2019-03-24T06:13:17.826Z,84.13
2019-03-24T06:14:18.146Z,83.26
2019-03-24T06:15:18.446Z,82.89
2019-03-24T06:16:18.789Z,83.26
2019-03-24T06:17:19.075Z,83.47
2019-03-24T06:18:19.434Z,82.75
2019-03-24T06:19:19.779Z,82.23
2019-03-24T06:20:20.209Z,82.75
2019-03-24T06:21:20.421Z,82.75
2019-03-24T06:22:20.712Z,82.92
2019-03-24T06:23:21.063Z,82.19
2019-03-24T06:24:21.384Z,82.03
2019-03-24T06:25:21.695Z,81.37
2019-03-24T06:26:22.042Z,81.78
2019-03-24T06:27:22.344Z,81.54
2019-03-24T06:28:22.791Z,81.23
2019-03-24T06:29:22.997Z,81.12
2019-03-24T06:30:23.300Z,80.91
2019-03-24T06:31:23.626Z,80.88
2019-03-24T06:32:23.945Z,80.46
2019-03-24T06:33:24.260Z,79.94
2019-03-24T06:34:24.608Z,79.43
2019-03-24T06:35:24.928Z,79.43
2019-03-24T06:36:25.552Z,79.22
2019-03-24T06:37:25.558Z,78.56
2019-03-24T06:38:25.894Z,78.56
2019-03-24T06:39:26.208Z,78.46
2019-03-24T06:40:26.529Z,78.46
2019-03-24T06:41:26.888Z,78.36
2019-03-24T06:42:27.187Z,78.36
2019-03-24T06:43:27.517Z,77.94
2019-03-24T06:44:27.881Z,77.50
2019-03-24T06:45:29.023Z,77.64
2019-03-24T06:46:28.613Z,77.70
2019-03-24T06:47:28.915Z,76.98
2019-03-24T06:48:29.256Z,76.73
2019-03-24T06:49:29.591Z,76.73
2019-03-24T06:50:29.902Z,76.12
2019-03-24T06:51:30.234Z,76.08
2019-03-24T06:52:30.569Z,75.74
2019-03-24T06:53:30.992Z,75.36
2019-03-24T06:54:31.235Z,75.15
2019-03-24T06:55:31.547Z,74.95
2019-03-24T06:56:31.880Z,74.02
2019-03-24T06:57:32.207Z,74.71
2019-03-24T06:58:32.544Z,73.88
2019-03-24T06:59:33.875Z,74.84
2019-03-24T07:00:35.716Z,73.88
2019-03-24T07:01:33.616Z,74.08
2019-03-24T07:02:33.844Z,74.19
2019-03-24T07:03:34.193Z,73.54
2019-03-24T07:04:34.528Z,73.85
2019-03-24T07:05:34.830Z,73.02
2019-03-24T07:06:35.185Z,73.40
2019-03-24T07:07:35.480Z,72.40
2019-03-24T07:08:35.835Z,73.43
2019-03-24T07:09:36.224Z,72.81
2019-03-24T07:10:36.474Z,72.92
2019-03-24T07:11:36.818Z,73.12
2019-03-24T07:12:37.112Z,73.54
2019-03-24T07:13:37.478Z,72.40
2019-03-24T07:14:37.820Z,72.81
2019-03-24T07:15:38.131Z,72.67
2019-03-24T07:16:38.460Z,72.81
2019-03-24T07:17:38.837Z,72.58
2019-03-24T07:18:39.035Z,72.58
2019-03-24T07:19:39.376Z,71.58
2019-03-24T07:20:39.694Z,71.85
2019-03-24T07:21:40.005Z,72.06
2019-03-24T07:22:40.370Z,71.64
2019-03-24T07:23:40.685Z,71.55
2019-03-24T07:24:41.015Z,71.13
2019-03-24T07:25:41.633Z,70.51
2019-03-24T07:26:41.771Z,71.03
2019-03-24T07:27:42.051Z,70.72
2019-03-24T07:28:42.389Z,70.82
2019-03-24T07:29:42.717Z,70.41
2019-03-24T07:30:43.027Z,69.55
2019-03-24T07:31:43.360Z,70.00
2019-03-24T07:32:43.702Z,70.20
2019-03-24T07:33:44.047Z,70.48
2019-03-24T07:34:44.439Z,69.96
2019-03-24T07:35:44.672Z,69.48
2019-03-24T07:36:45.000Z,69.48
2019-03-24T07:37:45.346Z,70.17
2019-03-24T07:38:45.648Z,69.48
2019-03-24T07:39:45.991Z,70.20
2019-03-24T07:40:46.313Z,69.55
2019-03-24T07:41:46.643Z,69.45
2019-03-24T07:42:47.098Z,69.65
2019-03-24T07:43:47.280Z,70.07
2019-03-24T07:44:47.650Z,69.65
2019-03-24T07:45:47.968Z,69.21
2019-03-24T07:46:48.296Z,69.11
2019-03-24T07:47:48.989Z,69.01
2019-03-24T07:48:48.954Z,68.49
2019-03-24T07:49:49.312Z,68.59
2019-03-24T07:50:49.653Z,68.15
2019-03-24T07:51:49.925Z,67.53
2019-03-24T07:52:50.309Z,67.09
2019-03-24T07:53:50.596Z,67.09
2019-03-24T07:54:50.955Z,67.26
2019-03-24T07:55:51.235Z,66.75
2019-03-24T07:56:51.565Z,65.83
2019-03-24T07:57:51.924Z,66.44
2019-03-24T07:58:52.291Z,66.03
2019-03-24T07:59:52.576Z,65.83
2019-03-24T08:00:52.886Z,66.54
2019-03-24T08:01:53.207Z,66.85
2019-03-24T08:02:53.562Z,66.85
2019-03-24T08:03:53.868Z,66.85
2019-03-24T08:04:54.233Z,66.96
2019-03-24T08:05:54.537Z,67.09
2019-03-24T08:06:54.892Z,67.19
2019-03-24T08:07:55.273Z,67.30
2019-03-24T08:08:55.523Z,66.99
2019-03-24T08:09:55.898Z,66.96
2019-03-24T08:10:56.185Z,67.06
2019-03-24T08:11:56.502Z,66.85
2019-03-24T08:12:56.910Z,66.13
2019-03-24T08:13:57.177Z,66.37
2019-03-24T08:14:59.858Z,66.78
2019-03-24T08:15:58.213Z,67.50
2019-03-24T08:16:58.175Z,66.99
2019-03-24T08:17:58.494Z,66.99
2019-03-24T08:19:12.189Z,67.09
2019-03-24T08:19:59.183Z,67.30
2019-03-24T08:20:59.498Z,66.78
2019-03-24T08:21:59.832Z,66.78
2019-03-24T08:23:00.175Z,66.67
2019-03-24T08:24:00.548Z,67.40
2019-03-24T08:25:00.809Z,67.19
2019-03-24T08:26:01.150Z,66.58
2019-03-24T08:27:01.481Z,66.99
2019-03-24T08:28:01.824Z,66.13
2019-03-24T08:29:02.139Z,65.92
2019-03-24T08:30:02.461Z,65.31
2019-03-24T08:31:02.814Z,66.20
2019-03-24T08:32:03.160Z,65.38
2019-03-24T08:33:03.450Z,66.13
2019-03-24T08:34:03.777Z,65.80
2019-03-24T08:35:04.129Z,66.00
2019-03-24T08:36:04.432Z,65.17
2019-03-24T08:37:04.762Z,65.28
2019-03-24T08:38:05.101Z,65.69
2019-03-24T08:39:05.418Z,65.59
2019-03-24T08:40:05.803Z,65.28
2019-03-24T08:41:06.105Z,65.28
2019-03-24T08:42:06.406Z,65.17
2019-03-24T08:43:06.751Z,65.08
2019-03-24T08:44:07.101Z,65.35
2019-03-24T08:45:07.402Z,65.17
2019-03-24T08:46:07.740Z,65.05
2019-03-24T08:47:08.035Z,66.07
2019-03-24T08:48:08.417Z,66.07
2019-03-24T08:49:08.831Z,65.77
2019-03-24T08:50:09.080Z,65.42
2019-03-24T08:51:09.400Z,65.32
2019-03-24T08:52:09.694Z,65.22
2019-03-24T08:53:10.057Z,65.22
2019-03-24T08:54:10.368Z,64.50
2019-03-24T08:55:10.706Z,64.26
2019-03-24T08:56:11.041Z,63.54
2019-03-24T08:57:11.461Z,63.44
2019-03-24T08:58:11.710Z,63.44
2019-03-24T08:59:12.026Z,62.90
2019-03-24T09:00:12.348Z,62.62
2019-03-24T09:01:12.695Z,62.18
2019-03-24T09:02:13.004Z,61.64
2019-03-24T09:03:13.336Z,61.51
2019-03-24T09:04:13.666Z,61.61
2019-03-24T09:05:14.074Z,61.41
2019-03-24T09:06:14.338Z,61.51
2019-03-24T09:07:14.656Z,60.38
2019-03-24T09:08:15.066Z,61.33
2019-03-24T09:09:15.298Z,60.92
2019-03-24T09:10:15.677Z,60.41
2019-03-24T09:11:16.028Z,60.41
2019-03-24T09:12:16.302Z,60.21
2019-03-24T09:13:16.682Z,60.51
2019-03-24T09:14:16.925Z,60.75
2019-03-24T09:15:17.316Z,60.41
2019-03-24T09:16:17.620Z,60.54
2019-03-24T09:17:17.938Z,60.75
2019-03-24T09:18:18.292Z,61.64
2019-03-24T09:19:18.603Z,60.92
2019-03-24T09:20:18.942Z,60.21
2019-03-24T09:21:19.560Z,58.69
2019-03-24T09:22:20.884Z,58.77
2019-03-24T09:23:20.996Z,58.77
2019-03-24T09:24:20.259Z,58.49
2019-03-24T09:25:20.597Z,59.28
2019-03-24T09:26:20.936Z,58.56
2019-03-24T09:27:21.264Z,58.46
2019-03-24T09:28:21.592Z,58.46
2019-03-24T09:29:21.948Z,58.77
2019-03-24T09:30:22.386Z,59.18
2019-03-24T09:31:22.619Z,59.28
2019-03-24T09:32:22.925Z,59.08
2019-03-24T09:33:23.255Z,58.97
2019-03-24T09:34:23.593Z,59.38
2019-03-24T09:35:23.943Z,59.08
2019-03-24T09:36:24.280Z,58.15
2019-03-24T09:37:24.580Z,58.95
2019-03-24T09:38:25.028Z,59.05
2019-03-24T09:39:25.255Z,59.15
2019-03-24T09:40:25.569Z,59.36
2019-03-24T09:41:25.910Z,58.84
2019-03-24T09:42:26.213Z,58.72
2019-03-24T09:43:26.556Z,58.64
2019-03-24T09:44:26.896Z,57.61
2019-03-24T09:45:27.215Z,58.64
2019-03-24T09:46:27.609Z,58.64
2019-03-24T09:47:27.845Z,57.82
2019-03-24T09:48:28.191Z,57.18
2019-03-24T09:49:28.563Z,56.26
2019-03-24T09:50:28.864Z,57.59
2019-03-24T09:51:29.218Z,57.38
2019-03-24T09:52:29.521Z,57.38
2019-03-24T09:53:29.829Z,56.95
2019-03-24T09:54:30.219Z,56.87
2019-03-24T09:55:30.496Z,56.15
2019-03-24T09:56:31.094Z,56.15
2019-03-24T09:57:31.168Z,56.84
2019-03-24T09:58:31.509Z,56.05
2019-03-24T09:59:31.829Z,56.05
2019-03-24T10:00:32.156Z,56.15
2019-03-24T10:01:32.522Z,56.35
2019-03-24T10:02:32.848Z,56.46
2019-03-24T10:03:33.240Z,55.74
2019-03-24T10:04:33.478Z,55.85
2019-03-24T10:05:33.807Z,55.43
2019-03-24T10:06:34.172Z,54.28
2019-03-24T10:07:34.463Z,54.28
2019-03-24T10:08:34.792Z,54.28
2019-03-24T10:09:35.140Z,54.00
2019-03-24T10:10:35.436Z,54.00
2019-03-24T10:11:35.920Z,53.39
2019-03-24T10:12:36.123Z,52.97
2019-03-24T10:13:36.451Z,53.08
2019-03-24T10:14:36.801Z,52.26
2019-03-24T10:15:37.097Z,52.77
2019-03-24T10:16:37.468Z,51.95
2019-03-24T10:17:37.772Z,52.64
2019-03-24T10:18:38.102Z,52.34
2019-03-24T10:19:38.527Z,52.44
2019-03-24T10:20:38.722Z,52.44
2019-03-24T10:21:39.120Z,52.23
2019-03-24T10:22:39.409Z,52.85
2019-03-24T10:23:39.739Z,52.51
2019-03-24T10:24:40.090Z,52.31
2019-03-24T10:25:40.399Z,51.51
2019-03-24T10:26:40.722Z,52.85
2019-03-24T10:27:41.094Z,52.54
2019-03-24T10:28:41.368Z,51.93
2019-03-24T10:29:41.719Z,52.13
2019-03-24T10:30:42.026Z,53.05
2019-03-24T10:31:42.577Z,52.44
2019-03-24T10:32:42.667Z,51.75
2019-03-24T10:33:43.021Z,51.75
2019-03-24T10:34:43.392Z,51.75
2019-03-24T10:35:43.751Z,51.42
2019-03-24T10:36:44.155Z,51.21
2019-03-24T10:37:44.407Z,51.21
2019-03-24T10:38:44.704Z,51.21
2019-03-24T10:39:45.065Z,50.06
2019-03-24T10:40:45.377Z,50.26
2019-03-24T10:41:45.707Z,49.34
2019-03-24T10:42:46.075Z,48.91
2019-03-24T10:43:46.376Z,49.32
2019-03-24T10:44:46.810Z,49.11
2019-03-24T10:45:47.017Z,48.93
2019-03-24T10:46:47.353Z,50.06
2019-03-24T10:47:47.718Z,49.14
2019-03-24T10:48:47.995Z,49.04
2019-03-24T10:49:48.340Z,49.04
2019-03-24T10:50:48.665Z,49.34
2019-03-24T10:51:48.987Z,49.14
2019-03-24T10:52:49.481Z,49.93
2019-03-24T10:53:49.648Z,49.11
2019-03-24T10:54:54.759Z,48.40
2019-03-24T10:55:50.321Z,49.50
2019-03-24T10:56:50.650Z,49.32
2019-03-24T10:57:51.007Z,49.83
2019-03-24T10:58:51.302Z,48.99
2019-03-24T10:59:51.656Z,49.11
2019-03-24T11:00:52.043Z,48.99
2019-03-24T11:01:52.280Z,49.32
2019-03-24T11:02:52.651Z,49.11
2019-03-24T11:03:52.947Z,49.63
2019-03-24T11:04:53.287Z,49.63
2019-03-24T11:05:53.582Z,49.22
2019-03-24T11:06:53.931Z,49.63
2019-03-24T11:07:54.309Z,49.19
2019-03-24T11:08:54.664Z,48.48
2019-03-24T11:09:54.934Z,48.89
2019-03-24T11:10:55.249Z,47.86
2019-03-24T11:11:55.561Z,48.17
2019-03-24T11:12:55.949Z,48.27
2019-03-24T11:13:56.259Z,48.17
2019-03-24T11:14:56.611Z,47.86
2019-03-24T11:15:56.921Z,48.38
2019-03-24T11:16:57.277Z,48.86
2019-03-24T11:17:57.640Z,48.25
2019-03-24T11:18:57.907Z,46.62
2019-03-24T11:19:58.254Z,46.59
2019-03-24T11:20:58.559Z,47.11
2019-03-24T11:21:58.888Z,46.70
2019-03-24T11:22:59.256Z,46.16
2019-03-24T11:23:59.549Z,46.67
2019-03-24T11:24:59.915Z,46.67
2019-03-24T11:26:00.356Z,46.26
2019-03-24T11:27:00.569Z,48.82
2019-03-24T11:28:00.910Z,47.29
2019-03-24T11:29:01.227Z,46.88
2019-03-24T11:30:01.574Z,46.47
2019-03-24T11:31:01.893Z,45.02
2019-03-24T11:32:02.212Z,45.02
2019-03-24T11:33:02.581Z,44.61
2019-03-24T11:34:02.986Z,45.02
2019-03-24T11:35:03.452Z,45.02
2019-03-24T11:36:03.538Z,45.40
2019-03-24T11:37:03.866Z,44.18
2019-03-24T11:38:04.225Z,43.37
2019-03-24T11:39:04.507Z,42.76
2019-03-24T11:40:04.868Z,43.49
2019-03-24T11:41:05.182Z,43.47
2019-03-24T11:42:05.557Z,43.55
2019-03-24T11:43:05.866Z,41.82
2019-03-24T11:44:06.164Z,41.42
2019-03-24T11:45:06.477Z,41.33
2019-03-24T11:46:06.805Z,41.92
2019-03-24T11:47:07.155Z,41.61
2019-03-24T11:48:07.518Z,41.02
2019-03-24T11:49:07.806Z,41.51
2019-03-24T11:50:08.187Z,40.20
2019-03-24T11:51:08.447Z,39.98
2019-03-24T11:52:08.814Z,40.80
2019-03-24T11:53:09.181Z,40.98
2019-03-24T11:54:09.473Z,41.08
2019-03-24T11:55:09.804Z,41.27
2019-03-24T11:56:10.152Z,41.66
2019-03-24T11:57:10.464Z,39.92
2019-03-24T11:58:10.853Z,39.82
2019-03-24T11:59:11.254Z,39.42
2019-03-24T12:00:11.513Z,39.72
2019-03-24T12:01:11.859Z,40.53
2019-03-24T12:02:12.153Z,38.60
2019-03-24T12:03:12.536Z,38.70
2019-03-24T12:04:12.830Z,39.72
2019-03-24T12:05:13.162Z,38.90
2019-03-24T12:06:14.866Z,39.13
2019-03-24T12:07:13.959Z,39.64
2019-03-24T12:08:14.214Z,39.42
2019-03-24T12:09:14.481Z,40.43
2019-03-24T12:10:14.812Z,40.64
2019-03-24T12:11:15.165Z,39.70
2019-03-24T12:12:15.518Z,39.07
2019-03-24T12:13:15.851Z,38.97
2019-03-24T12:14:16.142Z,39.66
2019-03-24T12:15:16.545Z,39.76
2019-03-24T12:16:16.822Z,40.58
2019-03-24T12:17:17.146Z,39.34
2019-03-24T12:18:17.493Z,38.73
2019-03-24T12:19:17.799Z,38.31
2019-03-24T12:20:18.133Z,38.00
2019-03-24T12:21:19.297Z,38.81
2019-03-24T12:22:18.790Z,38.39
2019-03-24T12:23:20.952Z,37.68
2019-03-24T12:24:19.422Z,38.18
2019-03-24T12:25:19.773Z,37.78
2019-03-24T12:26:20.132Z,38.90
2019-03-24T12:27:20.442Z,37.58
2019-03-24T12:28:20.821Z,37.78
2019-03-24T12:29:21.101Z,36.76
2019-03-24T12:30:21.424Z,37.05
2019-03-24T12:31:21.844Z,36.16
2019-03-24T12:32:22.117Z,36.34
2019-03-24T12:33:22.469Z,35.82
2019-03-24T12:34:22.765Z,36.53
2019-03-24T12:35:23.095Z,36.00
2019-03-24T12:36:23.423Z,35.60
2019-03-24T12:37:23.757Z,34.67
2019-03-24T12:38:24.138Z,34.85
2019-03-24T12:39:24.444Z,34.25
2019-03-24T12:40:24.854Z,33.32
2019-03-24T12:41:25.100Z,33.64
2019-03-24T12:42:25.413Z,32.93
2019-03-24T12:43:25.785Z,33.86
2019-03-24T12:44:26.067Z,33.75
2019-03-24T12:45:26.403Z,33.25
2019-03-24T12:46:26.724Z,33.06
2019-03-24T12:47:27.039Z,33.37
2019-03-24T12:48:27.673Z,33.99
2019-03-24T12:49:27.711Z,34.00
2019-03-24T12:50:31.493Z,34.11
2019-03-24T12:51:28.379Z,33.80
2019-03-24T12:52:28.703Z,34.43
2019-03-24T12:53:29.805Z,34.94
2019-03-24T12:54:29.400Z,35.97
2019-03-24T12:55:29.735Z,36.27
2019-03-24T12:56:30.145Z,34.75